LATI METAR and TAF | Updated Today

LATI METAR

Tirana International Airport Mother Teresa

Observation time: 6 min. ago

LATI 292050Z 16005KT 9999 FEW100 17/14 Q1010 NOSIG

Need help? Read our tutorial on how to read METARs or read the parsed version below.

Tirana International Airport Mother Teresa (LATI) METAR

  • Weather conditions on Thu, 29 Sep 2022 20:50:00 +0000 (6 min. ago):
  • Present conditions: Dry
  • Clouds: A few at 3048 meters
  • Visibility: Greater than 10 km
  • Wind: 160 degrees at 5 knots
  • Temperature: 17 celsius
  • Dew point: 14 celsius
  • Pressure: 1010 millibars
  • Remarks: None


Useful to know...

LATI TAF

Tirana International Airport Mother Teresa

TAF LATI 291700Z 2918/3018 15010KT 9999 SCT040 BKN080 TX25/3012Z TN18/3003Z TEMPO 3010/3017 24012KT FEW030TCU
Observation time: 3:56 hr. ago
Need help? Read our tutorial on how to read TAFs or read the parsed version below.

Parsed version of TAF for Tirana International Airport Mother Teresa (LATI)

  • From 29 September at 18:00 UTC, to day 30 of the month at 18:00 UTC
  • Clouds: Scattered at 1219 meters; broken sky at 2438 meters
  • Visibility: Greater than 10 km
  • Wind: 150 degrees at 10
  • Expected to arise temporarily, from 30 September at 10:00 UTC, to day 30 of the month at 17:00 UTC
  • Clouds: A few at 914 meters, towering cumulus
  • Wind: 240 degrees at 12

Airports near LATI

No airports found within 100nm radius.